createdAt,value
2019-04-21T00:02:03.276Z,101210.14
2019-04-21T00:07:25.064Z,101203.95
2019-04-21T00:12:28.349Z,101195.26
2019-04-21T00:17:17.783Z,101189.39
2019-04-21T00:22:31.543Z,101182.08
2019-04-21T00:27:38.290Z,101175.70
2019-04-21T00:32:40.519Z,101166.53
2019-04-21T00:37:52.184Z,101162.57
2019-04-21T00:42:52.485Z,101152.92
2019-04-21T00:47:57.746Z,101135.79
2019-04-21T00:53:04.671Z,101130.95
2019-04-21T00:58:20.833Z,101126.58
2019-04-21T01:03:20.498Z,101123.59
2019-04-21T01:08:21.761Z,101123.20
2019-04-21T01:13:27.850Z,101128.08
2019-04-21T01:18:27.655Z,101125.89
2019-04-21T01:23:12.711Z,101125.89
2019-04-21T01:28:29.253Z,101118.84
2019-04-21T01:33:49.034Z,101119.84
2019-04-21T01:38:52.409Z,101108.83
2019-04-21T01:43:53.482Z,101109.39
2019-04-21T01:48:49.365Z,101106.98
2019-04-21T01:54:11.156Z,101102.78
2019-04-21T01:58:57.591Z,101098.00
2019-04-21T02:04:23.030Z,101100.11
2019-04-21T02:09:23.231Z,101100.97
2019-04-21T02:14:34.708Z,101090.65
2019-04-21T02:19:25.937Z,101083.16
2019-04-21T02:29:40.927Z,101081.92
2019-04-21T02:39:57.381Z,101070.05
2019-04-21T02:45:00.308Z,101067.07
2019-04-21T02:50:09.624Z,101065.25
2019-04-21T03:00:25.014Z,101058.93
2019-04-21T03:05:50.499Z,101059.61
2019-04-21T03:10:49.524Z,101048.11
2019-04-21T03:20:53.204Z,101035.09
2019-04-21T03:25:52.277Z,101030.77
2019-04-21T03:31:25.531Z,101019.55
2019-04-21T03:41:04.160Z,101027.14
2019-04-21T03:46:08.232Z,101020.06
2019-04-21T03:51:20.211Z,101020.99
2019-04-21T03:56:43.864Z,101020.89
2019-04-21T04:07:03.978Z,101015.84
2019-04-21T04:11:54.704Z,101014.30
2019-04-21T04:16:58.512Z,101014.36
2019-04-21T04:22:04.284Z,101014.18
2019-04-21T04:27:09.748Z,101009.64
2019-04-21T04:31:56.920Z,101011.32
2019-04-21T04:37:12.303Z,101016.50
2019-04-21T04:42:31.929Z,101014.52
2019-04-21T04:47:29.928Z,101015.07
2019-04-21T04:57:51.296Z,101010.92
2019-04-21T05:12:44.220Z,101006.77
2019-04-21T05:17:52.552Z,101016.47
2019-04-21T05:23:04.589Z,101022.11
2019-04-21T05:27:48.270Z,101020.73
2019-04-21T05:33:03.618Z,101022.83
2019-04-21T05:38:10.613Z,101019.83
2019-04-21T05:43:09.172Z,101010.09
2019-04-21T05:48:28.362Z,101017.23
2019-04-21T05:58:34.941Z,101012.05
2019-04-21T06:03:44.780Z,101021.20
2019-04-21T06:08:46.788Z,101020.41
2019-04-21T06:18:55.933Z,101016.59
2019-04-21T06:24:13.106Z,101012.64
2019-04-21T06:28:56.859Z,101019.48
2019-04-21T06:34:04.930Z,101018.75
2019-04-21T06:49:14.293Z,101007.22
2019-04-21T06:54:23.579Z,101003.66
2019-04-21T06:59:29.693Z,100996.20
2019-04-21T07:04:51.718Z,100992.75
2019-04-21T07:09:36.507Z,100990.91
2019-04-21T07:14:52.747Z,100991.42
2019-04-21T07:19:49.869Z,100995.42
2019-04-21T07:24:53.053Z,100992.70
2019-04-21T07:29:54.971Z,100983.18
2019-04-21T07:34:57.368Z,100984.82
2019-04-21T07:39:54.649Z,100988.11
2019-04-21T07:44:59.331Z,100969.16
2019-04-21T07:50:17.767Z,100970.06
2019-04-21T08:00:47.910Z,100960.06
2019-04-21T08:05:28.004Z,100958.28
2019-04-21T08:10:26.293Z,100951.93
2019-04-21T08:15:35.251Z,100955.87
2019-04-21T08:20:40.186Z,100962.95
2019-04-21T08:25:54.658Z,100947.70
2019-04-21T08:30:50.207Z,100944.41
2019-04-21T08:36:11.670Z,100940.03
2019-04-21T08:40:57.522Z,100928.42
2019-04-21T08:46:00.439Z,100935.64
2019-04-21T08:51:14.162Z,100920.21
2019-04-21T08:56:40.329Z,100922.88
2019-04-21T09:02:01.280Z,100927.02
2019-04-21T09:12:10.967Z,100919.36
2019-04-21T09:17:08.318Z,100904.66
2019-04-21T09:22:16.812Z,100900.86
2019-04-21T09:27:20.763Z,100902.72
2019-04-21T09:32:12.369Z,100889.11
2019-04-21T09:37:24.338Z,100876.90
2019-04-21T09:42:16.784Z,100885.57
2019-04-21T09:47:22.968Z,100879.45
2019-04-21T09:52:26.613Z,100870.70
2019-04-21T09:57:36.399Z,100870.04
2019-04-21T10:02:38.539Z,100855.45
2019-04-21T10:07:38.511Z,100851.31
2019-04-21T10:12:38.126Z,100852.27
2019-04-21T10:18:00.587Z,100844.67
2019-04-21T10:23:03.104Z,100827.95
2019-04-21T10:28:05.285Z,100828.77
2019-04-21T10:33:08.352Z,100818.20
2019-04-21T10:38:20.083Z,100809.50
2019-04-21T10:43:17.656Z,100809.06
2019-04-21T10:48:19.198Z,100791.67
2019-04-21T10:53:27.455Z,100784.11
2019-04-21T10:58:42.375Z,100775.58
2019-04-21T11:04:10.021Z,100770.59
2019-04-21T11:09:10.755Z,100763.48
2019-04-21T11:14:13.520Z,100753.08
2019-04-21T11:19:15.995Z,100742.80
2019-04-21T11:24:18.309Z,100730.88
2019-04-21T11:29:21.221Z,100724.27
2019-04-21T11:34:23.496Z,100719.44
2019-04-21T11:39:42.216Z,100704.53
2019-04-21T11:44:37.225Z,100704.02
2019-04-21T11:49:39.560Z,100692.26
2019-04-21T11:54:42.779Z,100686.58
2019-04-21T11:59:45.870Z,100684.14
2019-04-21T12:04:48.072Z,100675.00
2019-04-21T12:09:51.285Z,100657.89
2019-04-21T12:14:54.240Z,100656.95
2019-04-21T12:19:56.895Z,100647.66
2019-04-21T12:24:59.113Z,100634.13
2019-04-21T12:30:02.035Z,100635.05
2019-04-21T12:35:05.998Z,100637.36
2019-04-21T12:40:08.650Z,100627.58
2019-04-21T12:45:11.323Z,100612.47
2019-04-21T12:50:14.764Z,100612.44
2019-04-21T12:55:17.677Z,100595.59
2019-04-21T13:00:20.859Z,100587.15
2019-04-21T13:05:22.921Z,100581.73
2019-04-21T13:10:26.296Z,100567.99
2019-04-21T13:15:29.340Z,100562.00
2019-04-21T13:20:31.393Z,100549.98
2019-04-21T13:25:37.808Z,100541.83
2019-04-21T13:30:40.245Z,100544.20
2019-04-21T13:35:42.275Z,100535.02
2019-04-21T13:41:22.658Z,100531.78
2019-04-21T13:46:15.469Z,100514.48
2019-04-21T13:51:17.737Z,100510.70
2019-04-21T13:56:20.438Z,100494.35
2019-04-21T14:01:23.530Z,100493.27
2019-04-21T14:06:26.646Z,100478.81
2019-04-21T14:11:29.294Z,100476.39
2019-04-21T14:16:32.008Z,100469.92
2019-04-21T14:21:34.168Z,100467.31
2019-04-21T14:26:36.363Z,100460.45
2019-04-21T14:31:40.258Z,100457.89
2019-04-21T14:36:42.423Z,100451.30
2019-04-21T14:41:44.509Z,100449.45
2019-04-21T14:46:57.448Z,100449.55
2019-04-21T14:52:07.121Z,100447.65
2019-04-21T14:57:09.522Z,100435.97
2019-04-21T15:02:11.818Z,100431.52
2019-04-21T15:07:14.989Z,100130.80
2019-04-21T15:12:18.242Z,100120.56
2019-04-21T15:17:22.512Z,100112.59
2019-04-21T15:22:24.530Z,100111.95
2019-04-21T15:27:27.507Z,100129.80
2019-04-21T15:32:30.569Z,100131.70
2019-04-21T15:37:33.781Z,100335.45
2019-04-21T15:42:36.690Z,100355.11
2019-04-21T15:47:40.121Z,100342.64
2019-04-21T15:52:43.458Z,100355.69
2019-04-21T15:58:05.279Z,100348.72
2019-04-21T16:03:08.721Z,100329.30
2019-04-21T16:08:12.082Z,100341.48
2019-04-21T16:13:15.952Z,100333.79
2019-04-21T16:18:18.289Z,100330.02
2019-04-21T16:23:20.696Z,100333.78
2019-04-21T16:28:23.508Z,100324.25
2019-04-21T16:33:27.054Z,100326.89
2019-04-21T16:38:29.380Z,100324.92
2019-04-21T16:43:33.033Z,100308.63
2019-04-21T16:48:35.803Z,100291.77
2019-04-21T16:53:48.493Z,100291.05
2019-04-21T16:58:54.786Z,100291.41
2019-04-21T17:03:58.222Z,100297.55
2019-04-21T17:09:01.034Z,100292.25
2019-04-21T17:14:03.619Z,100288.33
2019-04-21T17:19:14.712Z,100286.12
2019-04-21T17:24:10.584Z,100279.18
2019-04-21T17:29:12.866Z,100279.09
2019-04-21T17:34:20.126Z,100278.34
2019-04-21T17:39:20.970Z,100271.45
2019-04-21T17:44:23.517Z,100268.60
2019-04-21T17:49:26.250Z,100265.73
2019-04-21T17:54:40.843Z,100264.17
2019-04-21T18:00:04.181Z,100264.52
2019-04-21T18:05:02.396Z,100266.05
2019-04-21T18:10:04.701Z,100269.60
2019-04-21T18:14:56.282Z,100277.74
2019-04-21T18:19:55.111Z,100279.68
2019-04-21T18:25:04.811Z,100280.50
2019-04-21T18:30:06.345Z,100286.53
2019-04-21T18:35:17.746Z,100288.16
2019-04-21T18:40:27.468Z,100277.77
2019-04-21T18:46:20.530Z,100276.16
2019-04-21T18:51:18.677Z,100280.47
2019-04-21T18:56:20.744Z,100277.63
2019-04-21T19:01:27.862Z,100279.59
2019-04-21T19:06:46.852Z,100281.04
2019-04-21T19:11:55.228Z,100289.09
2019-04-21T19:17:10.933Z,100297.17
2019-04-21T19:22:00.154Z,100298.98
2019-04-21T19:27:04.681Z,100295.19
2019-04-21T19:32:08.814Z,100293.05
2019-04-21T19:37:00.924Z,100295.34
2019-04-21T19:42:10.526Z,100297.14
2019-04-21T19:47:26.215Z,100291.06
2019-04-21T19:52:20.368Z,100286.67
2019-04-21T19:57:13.141Z,100283.53
2019-04-21T20:02:16.497Z,100282.02
2019-04-21T20:07:32.909Z,100274.05
2019-04-21T20:12:47.412Z,100283.20
2019-04-21T20:17:42.206Z,100284.28
2019-04-21T20:22:36.380Z,100273.22
2019-04-21T20:27:46.790Z,100271.75
2019-04-21T20:32:56.563Z,100266.99
2019-04-21T20:37:57.814Z,100263.10
2019-04-21T20:43:09.198Z,100265.17
2019-04-21T20:47:54.171Z,100264.19
2019-04-21T20:53:11.283Z,100264.52
2019-04-21T20:58:06.832Z,100263.17
2019-04-21T21:03:24.803Z,100259.19
2019-04-21T21:08:30.901Z,100256.20
2019-04-21T21:13:36.710Z,100263.87
2019-04-21T21:23:37.114Z,100263.68
2019-04-21T21:28:37.660Z,100259.37
2019-04-21T21:33:50.831Z,100263.12
2019-04-21T21:38:56.029Z,100260.27
2019-04-21T21:43:37.881Z,100259.92
2019-04-21T21:48:54.117Z,100256.63
2019-04-21T21:53:45.642Z,100257.58
2019-04-21T21:58:49.662Z,100251.59
2019-04-21T22:03:59.108Z,100248.14
2019-04-21T22:08:56.654Z,100251.00
2019-04-21T22:14:04.264Z,100249.22
2019-04-21T22:19:18.759Z,100247.46
2019-04-21T22:24:19.832Z,100245.11
2019-04-21T22:29:11.904Z,100239.80
2019-04-21T22:34:16.311Z,100253.01
2019-04-21T22:39:34.930Z,100254.78
2019-04-21T22:44:22.731Z,100256.80
2019-04-21T22:49:26.848Z,100258.69
2019-04-21T22:54:35.479Z,100262.59
2019-04-21T22:59:34.155Z,100257.48
2019-04-21T23:04:43.796Z,100258.84
2019-04-21T23:09:40.824Z,100254.45
2019-04-21T23:14:53.414Z,100250.20
2019-04-21T23:20:10.594Z,100252.53
2019-04-21T23:25:09.532Z,100248.13
2019-04-21T23:30:23.869Z,100246.39
2019-04-21T23:35:09.070Z,100247.88
2019-04-21T23:40:12.665Z,100241.06
2019-04-21T23:45:10.664Z,100237.39
2019-04-21T23:50:25.345Z,100232.64
2019-04-21T23:55:21.219Z,100230.70
